Time;durP1;ratioP1;P1;durP2;ratioP2;P2;SDS_P1;SDS_P2;PMS_P1;PMS_P2;Temp;Humidity;BMP_temperature;BMP_pressure;BME280_temperature;BME280_humidity;BME280_pressure;Samples;Min_cycle;Max_cycle;Signal;HPM_P1;HPM_P2
2022/03/16 00:01:54;;;;;;;4.60;3.50;;;;;;;;;;5113550;28;20420;-74
2022/03/16 00:04:21;;;;;;;5.37;3.80;;;;;;;;;;5113768;28;20411;-74
2022/03/16 00:06:47;;;;;;;8.00;3.87;;;;;;;;;;5113842;28;20411;-74
2022/03/16 00:09:13;;;;;;;5.63;4.00;;;;;;;;;;5113774;28;20443;-75
2022/03/16 00:11:38;;;;;;;5.40;4.43;;;;;;;;;;5114116;28;20420;-74
2022/03/16 00:14:04;;;;;;;3.90;3.60;;;;;;;;;;5113463;28;20423;-74
2022/03/16 00:16:30;;;;;;;10.47;4.03;;;;;;;;;;5113838;28;20419;-74
2022/03/16 00:18:56;;;;;;;3.77;3.53;;;;;;;;;;5113976;28;20407;-74
2022/03/16 00:21:22;;;;;;;3.67;3.47;;;;;;;;;;5113441;28;20514;-74
2022/03/16 00:26:52;;;;;;;9.93;3.47;;;;;;;;;;5113487;28;20915;-74
2022/03/16 00:29:17;;;;;;;3.37;3.10;;;;;;;;;;5113928;28;20472;-74
2022/03/16 00:31:43;;;;;;;7.63;5.40;;;;;;;;;;5113148;28;20776;-74
2022/03/16 00:34:09;;;;;;;3.33;3.13;;;;;;;;;;5113591;28;20450;-73
2022/03/16 00:36:35;;;;;;;4.90;4.50;;;;;;;;;;5114084;28;20414;-74
2022/03/16 00:39:01;;;;;;;8.60;3.23;;;;;;;;;;5113259;28;20423;-74
2022/03/16 00:41:27;;;;;;;3.30;3.10;;;;;;;;;;5113237;28;20479;-74
2022/03/16 00:43:53;;;;;;;4.13;3.83;;;;;;;;;;5112199;28;20395;-74
2022/03/16 00:46:19;;;;;;;6.53;3.87;;;;;;;;;;5113774;28;20170;-74
2022/03/16 00:48:45;;;;;;;6.80;3.97;;;;;;;;;;5113121;28;20536;-74
2022/03/16 00:51:12;;;;;;;11.03;5.00;;;;;;;;;;5113333;28;20426;-74
2022/03/16 00:53:39;;;;;;;6.27;4.30;;;;;;;;;;5113374;28;20404;-74
2022/03/16 00:56:06;;;;;;;4.50;4.20;;;;;;;;;;5113423;28;20415;-74
2022/03/16 00:58:33;;;;;;;22.13;4.80;;;;;;;;;;5113198;28;20953;-74
2022/03/16 01:01:00;;;;;;;3.37;3.27;;;;;;;;;;5112786;28;20991;-75
2022/03/16 01:03:26;;;;;;;3.97;3.60;;;;;;;;;;5112645;28;20469;-74
2022/03/16 01:05:52;;;;;;;9.83;4.23;;;;;;;;;;5094757;28;20424;-74
2022/03/16 01:08:18;;;;;;;5.40;4.00;;;;;;;;;;5112897;28;20430;-75
2022/03/16 01:10:44;;;;;;;4.87;4.47;;;;;;;;;;5113172;28;20780;-74
2022/03/16 01:13:10;;;;;;;20.97;3.83;;;;;;;;;;5113290;28;20407;-75
2022/03/16 01:15:36;;;;;;;6.10;4.23;;;;;;;;;;5112934;28;20415;-74
2022/03/16 01:18:02;;;;;;;7.63;4.10;;;;;;;;;;5112864;28;20477;-74
2022/03/16 01:20:28;;;;;;;7.50;4.20;;;;;;;;;;5113167;28;20474;-74
2022/03/16 01:22:54;;;;;;;5.60;3.20;;;;;;;;;;5113265;28;20411;-74
2022/03/16 01:25:20;;;;;;;2.53;2.33;;;;;;;;;;5113191;28;20496;-74
2022/03/16 01:27:46;;;;;;;5.07;3.83;;;;;;;;;;5112722;28;20536;-74
2022/03/16 01:30:15;;;;;;;3.93;3.20;;;;;;;;;;5113119;28;20480;-74
2022/03/16 01:32:42;;;;;;;6.50;4.37;;;;;;;;;;5112765;28;20416;-74
2022/03/16 01:35:08;;;;;;;5.10;4.80;;;;;;;;;;5094570;28;20493;-74
2022/03/16 01:37:35;;;;;;;11.80;4.90;;;;;;;;;;5112972;28;20503;-74
2022/03/16 01:40:01;;;;;;;6.47;5.40;;;;;;;;;;5112902;28;20533;-74
2022/03/16 01:42:27;;;;;;;11.63;5.90;;;;;;;;;;5113070;28;20415;-74
2022/03/16 01:44:54;;;;;;;8.40;5.40;;;;;;;;;;5116628;28;20407;-74
2022/03/16 01:47:21;;;;;;;7.60;5.30;;;;;;;;;;5116263;28;20506;-74
2022/03/16 01:49:48;;;;;;;10.90;6.57;;;;;;;;;;5116163;28;20520;-74
2022/03/16 01:52:19;;;;;;;6.87;6.27;;;;;;;;;;5116180;28;20423;-74
2022/03/16 01:54:45;;;;;;;3.47;3.23;;;;;;;;;;5116131;28;20426;-74
2022/03/16 01:57:11;;;;;;;8.07;7.23;;;;;;;;;;5116926;28;20412;-74
2022/03/16 01:59:38;;;;;;;7.40;6.80;;;;;;;;;;5115994;28;20537;-74
2022/03/16 02:02:04;;;;;;;15.03;7.70;;;;;;;;;;5115923;28;20511;-74
2022/03/16 02:04:31;;;;;;;19.77;6.60;;;;;;;;;;5116214;28;20453;-75
2022/03/16 02:06:57;;;;;;;11.03;7.33;;;;;;;;;;5115935;28;20423;-75
2022/03/16 02:09:23;;;;;;;8.27;7.50;;;;;;;;;;5116037;28;20460;-74
2022/03/16 02:11:49;;;;;;;7.93;7.23;;;;;;;;;;5115669;28;20818;-75
2022/03/16 02:14:15;;;;;;;10.43;6.87;;;;;;;;;;5115722;28;20457;-74
2022/03/16 02:16:41;;;;;;;6.40;5.90;;;;;;;;;;5115798;28;20412;-74
2022/03/16 02:19:07;;;;;;;9.03;8.10;;;;;;;;;;5115877;28;20510;-74
2022/03/16 02:21:37;;;;;;;8.10;7.17;;;;;;;;;;5115834;28;20482;-74
2022/03/16 02:24:03;;;;;;;10.00;8.33;;;;;;;;;;5115719;28;20428;-74
2022/03/16 02:26:29;;;;;;;7.80;7.20;;;;;;;;;;5115892;28;20451;-74
2022/03/16 02:28:55;;;;;;;7.40;6.80;;;;;;;;;;5115566;28;20738;-74
2022/03/16 02:31:21;;;;;;;7.20;6.80;;;;;;;;;;5115466;28;20419;-74
2022/03/16 02:33:47;;;;;;;10.05;8.73;;;;;;;;;;5114509;28;20858;-74
2022/03/16 02:36:13;;;;;;;10.20;7.80;;;;;;;;;;5115484;28;20181;-74
2022/03/16 02:38:38;;;;;;;8.23;7.67;;;;;;;;;;5115482;28;20407;-74
2022/03/16 02:41:04;;;;;;;7.93;7.43;;;;;;;;;;5115364;28;20494;-74
2022/03/16 02:43:30;;;;;;;7.70;7.10;;;;;;;;;;5115101;28;20498;-74
2022/03/16 02:45:56;;;;;;;8.77;8.00;;;;;;;;;;5115645;28;20419;-74
2022/03/16 02:48:23;;;;;;;8.73;8.07;;;;;;;;;;5115161;28;20459;-74
2022/03/16 02:50:49;;;;;;;9.10;8.27;;;;;;;;;;5115141;28;20416;-74
2022/03/16 02:53:15;;;;;;;9.37;8.57;;;;;;;;;;5114995;28;20414;-74
2022/03/16 02:55:44;;;;;;;8.90;8.30;;;;;;;;;;5113720;28;20857;-74
2022/03/16 02:58:10;;;;;;;8.97;8.37;;;;;;;;;;5114914;28;20929;-74
2022/03/16 03:00:36;;;;;;;9.57;8.77;;;;;;;;;;5096399;28;20851;-74
2022/03/16 03:03:02;;;;;;;10.97;9.97;;;;;;;;;;5115338;28;20408;-74
2022/03/16 03:05:28;;;;;;;10.00;9.07;;;;;;;;;;5114839;28;20424;-74
2022/03/16 03:07:54;;;;;;;11.10;10.10;;;;;;;;;;5114691;28;20414;-74
2022/03/16 03:10:20;;;;;;;11.20;10.13;;;;;;;;;;5115001;28;20447;-74
2022/03/16 03:12:46;;;;;;;11.00;10.00;;;;;;;;;;5114580;28;20770;-74
2022/03/16 03:15:13;;;;;;;11.60;10.60;;;;;;;;;;5114841;28;20906;-74
2022/03/16 03:17:39;;;;;;;11.83;10.73;;;;;;;;;;5114752;28;20412;-74
2022/03/16 03:20:05;;;;;;;11.47;10.30;;;;;;;;;;5114681;28;20949;-74
2022/03/16 03:22:31;;;;;;;11.97;10.87;;;;;;;;;;5114667;28;20419;-74
2022/03/16 03:24:57;;;;;;;12.27;10.97;;;;;;;;;;5114404;28;20412;-74
2022/03/16 03:27:23;;;;;;;13.97;12.57;;;;;;;;;;5114704;28;20431;-74
2022/03/16 03:29:49;;;;;;;12.30;11.30;;;;;;;;;;5114377;28;20419;-74
2022/03/16 03:32:15;;;;;;;13.83;12.50;;;;;;;;;;5114478;28;20741;-74
2022/03/16 03:34:46;;;;;;;14.90;12.97;;;;;;;;;;5114474;28;20420;-74
2022/03/16 03:37:12;;;;;;;15.50;13.40;;;;;;;;;;5114598;28;20869;-75
2022/03/16 03:39:38;;;;;;;16.73;14.50;;;;;;;;;;5114303;28;20592;-74
2022/03/16 03:42:05;;;;;;;15.70;14.00;;;;;;;;;;5114426;28;20439;-74
2022/03/16 03:44:30;;;;;;;20.73;16.10;;;;;;;;;;5114033;28;20404;-74
2022/03/16 03:46:56;;;;;;;17.60;15.20;;;;;;;;;;5114057;28;20829;-74
2022/03/16 03:49:22;;;;;;;17.57;14.43;;;;;;;;;;5113922;28;20859;-74
2022/03/16 03:51:48;;;;;;;24.27;17.20;;;;;;;;;;5113862;28;20469;-74
2022/03/16 03:54:14;;;;;;;22.97;16.97;;;;;;;;;;5113794;28;20408;-74
2022/03/16 03:56:40;;;;;;;22.63;16.00;;;;;;;;;;5113843;28;20423;-73
2022/03/16 03:59:06;;;;;;;21.80;17.10;;;;;;;;;;5113766;28;20412;-74
2022/03/16 04:01:32;;;;;;;19.97;17.27;;;;;;;;;;5113892;28;20506;-74
2022/03/16 04:03:58;;;;;;;22.50;16.83;;;;;;;;;;5113815;28;20431;-74
2022/03/16 04:06:26;;;;;;;20.73;15.97;;;;;;;;;;5113541;28;20415;-74
2022/03/16 04:08:52;;;;;;;25.23;18.87;;;;;;;;;;5113617;28;20503;-74
2022/03/16 04:11:18;;;;;;;23.83;18.67;;;;;;;;;;5113633;28;20416;-73
2022/03/16 04:13:44;;;;;;;29.90;18.90;;;;;;;;;;5113532;28;20430;-73
2022/03/16 04:16:10;;;;;;;30.50;20.67;;;;;;;;;;5113484;28;20556;-74
2022/03/16 04:18:36;;;;;;;25.87;19.67;;;;;;;;;;5113462;28;20414;-73
2022/03/16 04:21:01;;;;;;;33.43;20.30;;;;;;;;;;5113451;28;20470;-73
2022/03/16 04:23:27;;;;;;;32.27;20.40;;;;;;;;;;5113707;28;20414;-74
2022/03/16 04:25:53;;;;;;;27.60;18.97;;;;;;;;;;5113438;28;20462;-74
2022/03/16 04:28:19;;;;;;;35.10;21.90;;;;;;;;;;5113630;28;20458;-73
2022/03/16 04:30:45;;;;;;;32.23;20.90;;;;;;;;;;5113346;28;20876;-73
2022/03/16 04:33:11;;;;;;;29.67;19.40;;;;;;;;;;5113625;28;20506;-73
2022/03/16 04:35:37;;;;;;;28.57;19.63;;;;;;;;;;5113351;28;20578;-73
2022/03/16 04:38:03;;;;;;;27.50;18.23;;;;;;;;;;5095063;28;20419;-73
2022/03/16 04:40:29;;;;;;;31.67;19.93;;;;;;;;;;5113533;28;20463;-73
2022/03/16 04:42:55;;;;;;;28.37;19.03;;;;;;;;;;5113271;28;20928;-73
2022/03/16 04:45:21;;;;;;;29.10;21.23;;;;;;;;;;5113769;28;20767;-74
2022/03/16 04:47:47;;;;;;;33.27;19.27;;;;;;;;;;5113795;28;20411;-74
2022/03/16 04:50:13;;;;;;;28.20;18.73;;;;;;;;;;5113222;28;20490;-73
2022/03/16 04:52:43;;;;;;;25.20;18.43;;;;;;;;;;5113114;28;20421;-73
2022/03/16 04:55:10;;;;;;;29.60;19.73;;;;;;;;;;5095225;28;20863;-74
2022/03/16 04:57:36;;;;;;;27.90;18.73;;;;;;;;;;5113007;28;20835;-73
2022/03/16 05:00:01;;;;;;;30.03;20.60;;;;;;;;;;5113140;28;20550;-73
2022/03/16 05:02:27;;;;;;;31.67;20.03;;;;;;;;;;5112935;28;20424;-74
2022/03/16 05:04:53;;;;;;;28.70;20.73;;;;;;;;;;5113589;28;20412;-74
2022/03/16 05:07:19;;;;;;;27.93;19.97;;;;;;;;;;5113276;28;20423;-73
2022/03/16 05:09:45;;;;;;;25.93;19.33;;;;;;;;;;5113077;28;20924;-74
2022/03/16 05:12:11;;;;;;;26.37;19.00;;;;;;;;;;5112998;28;20451;-73
2022/03/16 05:14:37;;;;;;;21.13;17.07;;;;;;;;;;5113515;28;20442;-74
2022/03/16 05:17:03;;;;;;;22.97;17.70;;;;;;;;;;5112975;28;20908;-74
2022/03/16 05:19:30;;;;;;;27.50;18.63;;;;;;;;;;5116567;28;20435;-74
2022/03/16 05:21:56;;;;;;;23.90;18.50;;;;;;;;;;5116902;28;20411;-74
2022/03/16 05:24:23;;;;;;;33.73;18.93;;;;;;;;;;5116901;28;20420;-74
2022/03/16 05:26:49;;;;;;;24.87;18.23;;;;;;;;;;5116663;28;20414;-73
2022/03/16 05:29:15;;;;;;;30.40;20.80;;;;;;;;;;5116747;28;20929;-73
2022/03/16 05:31:41;;;;;;;29.10;19.00;;;;;;;;;;5116552;28;20408;-73
2022/03/16 05:34:07;;;;;;;40.23;19.13;;;;;;;;;;5116853;28;20423;-74
2022/03/16 05:36:33;;;;;;;32.63;21.33;;;;;;;;;;5116590;28;20412;-75
2022/03/16 05:38:59;;;;;;;30.03;19.77;;;;;;;;;;5116472;28;20426;-74
2022/03/16 05:41:25;;;;;;;29.70;21.97;;;;;;;;;;5116414;28;20463;-73
2022/03/16 05:43:51;;;;;;;39.07;20.47;;;;;;;;;;5116633;28;20407;-74
2022/03/16 05:46:17;;;;;;;31.97;19.70;;;;;;;;;;5116622;28;20950;-74
2022/03/16 05:48:43;;;;;;;29.53;20.63;;;;;;;;;;5116260;28;20549;-74
2022/03/16 05:51:09;;;;;;;28.07;19.40;;;;;;;;;;5115806;28;20470;-74
2022/03/16 05:53:35;;;;;;;35.40;21.10;;;;;;;;;;5116269;28;20442;-74
2022/03/16 05:56:01;;;;;;;33.20;20.40;;;;;;;;;;5116388;28;20507;-74
2022/03/16 05:58:27;;;;;;;26.03;19.70;;;;;;;;;;5116174;28;20423;-74
2022/03/16 06:00:53;;;;;;;35.33;20.60;;;;;;;;;;5116143;28;20463;-74
2022/03/16 06:03:20;;;;;;;25.13;18.33;;;;;;;;;;5116119;28;20962;-73
2022/03/16 06:05:46;;;;;;;33.20;19.80;;;;;;;;;;5115815;28;20423;-74
2022/03/16 06:08:12;;;;;;;33.17;19.57;;;;;;;;;;5115955;28;20434;-73
2022/03/16 06:10:39;;;;;;;31.83;19.47;;;;;;;;;;5116057;28;20416;-73
2022/03/16 06:13:05;;;;;;;29.67;20.47;;;;;;;;;;5097587;28;20416;-73
2022/03/16 06:15:37;;;;;;;31.63;20.50;;;;;;;;;;5116094;28;20447;-73
2022/03/16 06:18:03;;;;;;;21.90;15.60;;;;;;;;;;5115263;28;20912;-74
2022/03/16 06:20:30;;;;;;;16.40;13.40;;;;;;;;;;5115919;28;20210;-73
2022/03/16 06:22:56;;;;;;;14.50;11.37;;;;;;;;;;5116285;28;20495;-73
2022/03/16 06:25:24;;;;;;;15.10;12.00;;;;;;;;;;5116169;28;20416;-73
2022/03/16 06:27:51;;;;;;;15.00;11.87;;;;;;;;;;5116384;28;20427;-74
2022/03/16 06:30:17;;;;;;;16.43;13.20;;;;;;;;;;5116208;28;20425;-73
2022/03/16 06:32:47;;;;;;;17.67;14.40;;;;;;;;;;5115759;28;20851;-74
2022/03/16 06:35:13;;;;;;;16.80;13.07;;;;;;;;;;5115641;28;20416;-74
2022/03/16 06:37:39;;;;;;;14.03;12.13;;;;;;;;;;5115660;28;20487;-74
2022/03/16 06:40:06;;;;;;;17.63;13.60;;;;;;;;;;5116175;28;20479;-75
2022/03/16 06:42:32;;;;;;;15.97;13.87;;;;;;;;;;5115276;28;20443;-75
2022/03/16 06:44:58;;;;;;;14.67;13.03;;;;;;;;;;5115045;28;20902;-74
2022/03/16 06:47:24;;;;;;;19.10;15.00;;;;;;;;;;5115043;28;20422;-74
2022/03/16 06:49:50;;;;;;;15.90;12.90;;;;;;;;;;5114825;28;20933;-74
2022/03/16 06:52:16;;;;;;;19.20;14.60;;;;;;;;;;5115784;28;20424;-73
2022/03/16 06:54:42;;;;;;;15.90;13.90;;;;;;;;;;5115650;28;20416;-74
2022/03/16 06:57:07;;;;;;;17.83;11.77;;;;;;;;;;5115035;28;20530;-74
2022/03/16 06:59:33;;;;;;;12.23;11.03;;;;;;;;;;5114843;28;20420;-80
2022/03/16 07:01:59;;;;;;;11.60;10.57;;;;;;;;;;5115141;28;20454;-73
2022/03/16 07:04:25;;;;;;;14.50;12.90;;;;;;;;;;5114685;28;20410;-74
2022/03/16 07:06:51;;;;;;;13.63;12.33;;;;;;;;;;5115046;28;20442;-73
2022/03/16 07:09:18;;;;;;;14.63;12.47;;;;;;;;;;5114801;28;20416;-74
2022/03/16 07:11:44;;;;;;;15.33;11.60;;;;;;;;;;5114661;28;20808;-74
2022/03/16 07:16:54;;;;;;;13.80;12.40;;;;;;;;;;5114981;28;20988;-74
2022/03/16 07:19:20;;;;;;;17.43;13.00;;;;;;;;;;5114261;28;20451;-73
2022/03/16 07:21:46;;;;;;;19.27;12.53;;;;;;;;;;5114621;28;20424;-73
2022/03/16 07:24:12;;;;;;;21.87;14.93;;;;;;;;;;5114380;28;20786;-73
2022/03/16 07:26:39;;;;;;;15.40;13.73;;;;;;;;;;5115196;28;20412;-74
2022/03/16 07:29:05;;;;;;;22.70;15.30;;;;;;;;;;5114104;28;20544;-73
2022/03/16 07:31:31;;;;;;;20.70;14.90;;;;;;;;;;5113872;28;20419;-74
2022/03/16 07:33:57;;;;;;;18.97;14.50;;;;;;;;;;5114256;28;20415;-75
2022/03/16 07:36:23;;;;;;;15.93;13.83;;;;;;;;;;5096443;28;20909;-74
2022/03/16 07:38:49;;;;;;;23.53;15.20;;;;;;;;;;5113907;28;20420;-73
2022/03/16 07:41:15;;;;;;;25.40;17.63;;;;;;;;;;5112627;28;20496;-73
2022/03/16 07:43:42;;;;;;;18.93;15.90;;;;;;;;;;5114145;28;20260;-73
2022/03/16 07:46:08;;;;;;;24.20;15.10;;;;;;;;;;5114038;28;20444;-73
2022/03/16 07:48:38;;;;;;;21.50;15.13;;;;;;;;;;5113913;28;20498;-73
2022/03/16 07:51:04;;;;;;;35.47;17.60;;;;;;;;;;5114543;28;20527;-73
2022/03/16 07:53:30;;;;;;;25.00;17.67;;;;;;;;;;5114163;28;20498;-73
2022/03/16 07:55:57;;;;;;;30.47;18.27;;;;;;;;;;5114169;28;20427;-73
2022/03/16 07:58:24;;;;;;;32.07;19.70;;;;;;;;;;5114134;28;20408;-73
2022/03/16 08:00:50;;;;;;;35.13;21.10;;;;;;;;;;5113804;28;20467;-74
2022/03/16 08:03:16;;;;;;;31.17;21.10;;;;;;;;;;5114026;28;20820;-74
2022/03/16 08:05:42;;;;;;;31.90;21.63;;;;;;;;;;5114308;28;20426;-73
2022/03/16 08:08:08;;;;;;;33.97;20.67;;;;;;;;;;5113658;28;20780;-74
2022/03/16 08:10:34;;;;;;;31.20;20.50;;;;;;;;;;5113712;28;20516;-73
2022/03/16 08:13:00;;;;;;;31.90;21.03;;;;;;;;;;5113599;28;20508;-73
2022/03/16 08:15:26;;;;;;;30.00;18.87;;;;;;;;;;5113636;28;20901;-74
2022/03/16 08:17:52;;;;;;;30.53;19.07;;;;;;;;;;5113611;28;20418;-74
2022/03/16 08:20:18;;;;;;;27.67;19.03;;;;;;;;;;5113552;28;20455;-73
2022/03/16 08:22:44;;;;;;;40.03;20.63;;;;;;;;;;5113489;28;20422;-73
2022/03/16 08:25:11;;;;;;;36.60;21.43;;;;;;;;;;5113817;28;20408;-73
2022/03/16 08:27:37;;;;;;;40.33;22.13;;;;;;;;;;5114452;28;20415;-73
2022/03/16 08:30:04;;;;;;;35.93;21.17;;;;;;;;;;5114204;28;20506;-73
2022/03/16 08:32:30;;;;;;;30.73;20.20;;;;;;;;;;5113913;28;20503;-74
2022/03/16 08:34:56;;;;;;;31.43;20.83;;;;;;;;;;5113765;28;20443;-74
2022/03/16 08:37:22;;;;;;;29.50;19.63;;;;;;;;;;5113626;28;20419;-74
2022/03/16 08:39:49;;;;;;;41.23;20.70;;;;;;;;;;5113409;28;20827;-74
2022/03/16 08:42:15;;;;;;;34.50;21.70;;;;;;;;;;5113606;28;20456;-73
2022/03/16 08:44:42;;;;;;;36.83;20.63;;;;;;;;;;5113598;28;20403;-73
2022/03/16 08:47:10;;;;;;;32.40;20.50;;;;;;;;;;5113621;28;20423;-74
2022/03/16 08:49:37;;;;;;;31.40;20.10;;;;;;;;;;5113059;28;20456;-74
2022/03/16 08:52:04;;;;;;;31.27;20.57;;;;;;;;;;5114515;28;20423;-74
2022/03/16 08:54:30;;;;;;;26.77;18.70;;;;;;;;;;5117404;28;20490;-73
2022/03/16 08:56:56;;;;;;;36.00;19.93;;;;;;;;;;5117686;28;20867;-74
2022/03/16 08:59:23;;;;;;;31.83;18.90;;;;;;;;;;5117383;28;20515;-73
2022/03/16 09:01:50;;;;;;;45.70;19.13;;;;;;;;;;5117383;28;20481;-74
2022/03/16 09:04:16;;;;;;;32.60;20.07;;;;;;;;;;5117504;28;20412;-74
2022/03/16 09:06:43;;;;;;;32.83;20.20;;;;;;;;;;5117446;28;20510;-74
2022/03/16 09:09:08;;;;;;;38.77;20.80;;;;;;;;;;5117130;28;20828;-74
2022/03/16 09:11:35;;;;;;;31.83;17.90;;;;;;;;;;5117306;28;20416;-73
2022/03/16 09:14:01;;;;;;;34.27;19.60;;;;;;;;;;5116950;28;20996;-73
2022/03/16 09:16:28;;;;;;;50.93;24.57;;;;;;;;;;5098681;28;20490;-74
2022/03/16 09:18:54;;;;;;;42.60;18.70;;;;;;;;;;5117260;28;20507;-74
2022/03/16 09:21:20;;;;;;;35.90;19.60;;;;;;;;;;5117188;28;20471;-73
2022/03/16 09:23:47;;;;;;;25.83;16.83;;;;;;;;;;5116844;28;20460;-74
2022/03/16 09:26:13;;;;;;;34.20;18.23;;;;;;;;;;5117144;28;20407;-74
2022/03/16 09:28:39;;;;;;;29.97;18.90;;;;;;;;;;5116995;28;20415;-73
2022/03/16 09:31:08;;;;;;;30.13;18.73;;;;;;;;;;5116905;28;20422;-74
2022/03/16 09:33:34;;;;;;;25.80;17.27;;;;;;;;;;5116901;28;20805;-73
2022/03/16 09:36:00;;;;;;;35.60;19.40;;;;;;;;;;5116505;28;20419;-74
2022/03/16 09:38:26;;;;;;;23.73;17.23;;;;;;;;;;5116843;28;20493;-74
2022/03/16 09:40:53;;;;;;;30.93;17.57;;;;;;;;;;5116688;28;20479;-74
2022/03/16 09:46:26;;;;;;;30.13;17.53;;;;;;;;;;5116488;28;20743;-73
2022/03/16 09:48:54;;;;;;;32.57;19.53;;;;;;;;;;5116149;28;20455;-74
2022/03/16 09:51:20;;;;;;;33.30;17.90;;;;;;;;;;5116695;28;20416;-74
2022/03/16 09:53:46;;;;;;;29.07;18.93;;;;;;;;;;5116822;28;20420;-73
2022/03/16 09:56:12;;;;;;;22.50;17.33;;;;;;;;;;5116363;28;20426;-74
2022/03/16 09:58:38;;;;;;;30.13;18.37;;;;;;;;;;5116559;28;20423;-73
2022/03/16 10:01:07;;;;;;;32.10;19.93;;;;;;;;;;5116427;28;20467;-73
2022/03/16 10:06:37;;;;;;;30.33;16.97;;;;;;;;;;5116216;28;20429;-74
2022/03/16 10:15:02;;;;;;;31.20;17.20;;;;;;;;;;5116081;28;20400;-73
2022/03/16 10:17:43;;;;;;;36.53;17.17;;;;;;;;;;5115807;28;20415;-74
2022/03/16 10:20:29;;;;;;;30.73;16.33;;;;;;;;;;5116045;28;20474;-73
2022/03/16 10:22:57;;;;;;;27.50;16.60;;;;;;;;;;5115480;28;20499;-74
2022/03/16 10:25:24;;;;;;;25.50;17.53;;;;;;;;;;5116103;28;20910;-74
2022/03/16 10:27:50;;;;;;;28.33;16.30;;;;;;;;;;5115804;28;20404;-74
2022/03/16 10:30:16;;;;;;;24.07;16.67;;;;;;;;;;5115607;28;20419;-74
2022/03/16 10:32:54;;;;;;;25.53;16.30;;;;;;;;;;5115468;28;20408;-73
2022/03/16 10:35:21;;;;;;;59.17;19.70;;;;;;;;;;5115735;28;20504;-73
2022/03/16 10:37:47;;;;;;;33.90;19.20;;;;;;;;;;5115406;28;20412;-74
2022/03/16 10:40:20;;;;;;;26.10;17.27;;;;;;;;;;5115660;28;20459;-74
2022/03/16 10:48:16;;;;;;;40.40;20.87;;;;;;;;;;5115381;28;20916;-73
2022/03/16 10:50:43;;;;;;;32.37;20.50;;;;;;;;;;5115398;28;20392;-74
2022/03/16 10:53:14;;;;;;;34.93;20.50;;;;;;;;;;5115008;28;20953;-74
2022/03/16 10:55:40;;;;;;;30.80;18.80;;;;;;;;;;5115251;28;20418;-73
2022/03/16 10:58:07;;;;;;;26.17;17.60;;;;;;;;;;5115394;28;20455;-73
2022/03/16 11:00:35;;;;;;;34.13;18.00;;;;;;;;;;5114899;28;20470;-73
2022/03/16 11:03:02;;;;;;;28.60;18.80;;;;;;;;;;5115162;28;20528;-74
2022/03/16 11:05:28;;;;;;;47.53;20.07;;;;;;;;;;5114894;28;20400;-74
2022/03/16 11:07:55;;;;;;;30.73;18.60;;;;;;;;;;5114828;28;20423;-74
2022/03/16 11:10:21;;;;;;;26.47;18.63;;;;;;;;;;5115353;28;20427;-74
2022/03/16 11:15:32;;;;;;;35.30;21.93;;;;;;;;;;5113975;28;20395;-74
2022/03/16 11:17:58;;;;;;;36.40;21.80;;;;;;;;;;5114846;28;20407;-73
2022/03/16 11:20:25;;;;;;;35.50;22.30;;;;;;;;;;5114839;28;20554;-74
2022/03/16 11:26:04;;;;;;;35.13;20.30;;;;;;;;;;5114607;28;20437;-74
2022/03/16 11:28:50;;;;;;;40.13;23.07;;;;;;;;;;5114516;28;20900;-74
2022/03/16 11:31:16;;;;;;;33.80;20.63;;;;;;;;;;5114790;28;20449;-74
2022/03/16 11:33:49;;;;;;;36.00;20.20;;;;;;;;;;5114620;28;20416;-73
2022/03/16 11:36:38;;;;;;;51.50;22.30;;;;;;;;;;5114351;28;20846;-74
2022/03/16 11:39:14;;;;;;;36.87;21.00;;;;;;;;;;5114501;28;20404;-74
2022/03/16 11:41:47;;;;;;;29.13;19.10;;;;;;;;;;5114801;28;20880;-74
2022/03/16 11:44:26;;;;;;;27.87;16.80;;;;;;;;;;5114257;28;20404;-74
2022/03/16 11:47:10;;;;;;;35.57;21.00;;;;;;;;;;5066109;28;20625;-72
2022/03/16 11:49:57;;;;;;;42.07;21.00;;;;;;;;;;5063158;28;20836;-72
2022/03/16 11:52:23;;;;;;;36.50;20.67;;;;;;;;;;5054824;28;20528;-72
2022/03/16 11:54:51;;;;;;;45.20;21.93;;;;;;;;;;5066502;28;20516;-74
2022/03/16 11:57:36;;;;;;;34.80;22.13;;;;;;;;;;5065536;28;20441;-75
2022/03/16 12:00:13;;;;;;;38.63;20.93;;;;;;;;;;5066470;28;20472;-72
2022/03/16 12:02:40;;;;;;;37.83;19.97;;;;;;;;;;5066053;28;20418;-76
2022/03/16 12:05:08;;;;;;;35.87;20.40;;;;;;;;;;5066587;28;20995;-73
2022/03/16 12:07:37;;;;;;;31.37;20.47;;;;;;;;;;5061627;28;20461;-73
2022/03/16 12:10:10;;;;;;;46.57;20.47;;;;;;;;;;5066767;28;20413;-73
2022/03/16 12:12:57;;;;;;;30.57;20.30;;;;;;;;;;5064050;28;20434;-73
2022/03/16 12:15:32;;;;;;;51.57;23.57;;;;;;;;;;5062928;28;20437;-73
2022/03/16 12:18:01;;;;;;;35.27;19.73;;;;;;;;;;5061623;28;20436;-73
2022/03/16 12:20:28;;;;;;;30.77;18.97;;;;;;;;;;5066229;28;20509;-73
2022/03/16 12:22:58;;;;;;;37.80;20.07;;;;;;;;;;5061927;28;20455;-73
2022/03/16 12:25:27;;;;;;;31.43;19.00;;;;;;;;;;5062576;28;20476;-73
2022/03/16 12:31:02;;;;;;;38.33;19.23;;;;;;;;;;5065565;28;20417;-73
2022/03/16 12:33:33;;;;;;;43.73;19.87;;;;;;;;;;5065142;28;20427;-73
2022/03/16 12:36:03;;;;;;;31.53;19.63;;;;;;;;;;5064113;28;20512;-73
2022/03/16 12:38:30;;;;;;;29.97;18.90;;;;;;;;;;5065626;28;20422;-73
2022/03/16 12:43:44;;;;;;;34.47;18.93;;;;;;;;;;5055443;28;20453;-73
2022/03/16 12:46:17;;;;;;;40.60;18.90;;;;;;;;;;5060892;28;20508;-73
2022/03/16 12:48:47;;;;;;;28.50;19.10;;;;;;;;;;5061429;28;20818;-73
2022/03/16 12:51:18;;;;;;;46.60;18.80;;;;;;;;;;5058417;28;20456;-73
2022/03/16 12:53:44;;;;;;;33.67;17.13;;;;;;;;;;5054827;28;20430;-73
2022/03/16 12:56:19;;;;;;;31.60;20.50;;;;;;;;;;5058467;28;20445;-73
2022/03/16 12:58:55;;;;;;;37.10;21.07;;;;;;;;;;5050093;28;20832;-73
2022/03/16 13:01:22;;;;;;;31.80;21.00;;;;;;;;;;5050851;28;20491;-74
2022/03/16 13:03:49;;;;;;;38.67;20.40;;;;;;;;;;5051891;28;20423;-73
2022/03/16 13:06:16;;;;;;;35.47;18.60;;;;;;;;;;5052125;28;20509;-73
2022/03/16 13:08:42;;;;;;;36.73;21.27;;;;;;;;;;5051807;28;20789;-73
2022/03/16 13:11:14;;;;;;;36.37;22.23;;;;;;;;;;5047329;28;20943;-73
2022/03/16 13:13:46;;;;;;;42.00;21.07;;;;;;;;;;5044071;28;20499;-73
2022/03/16 13:16:12;;;;;;;27.50;17.50;;;;;;;;;;5048822;28;20455;-73
2022/03/16 13:18:38;;;;;;;28.13;18.30;;;;;;;;;;5050371;28;20452;-74
2022/03/16 13:21:22;;;;;;;31.20;19.97;;;;;;;;;;5050984;28;20446;-73
2022/03/16 13:23:48;;;;;;;30.90;19.50;;;;;;;;;;5045558;28;20438;-74
2022/03/16 13:26:14;;;;;;;41.37;20.80;;;;;;;;;;5049465;28;20493;-73
2022/03/16 13:28:40;;;;;;;31.83;19.53;;;;;;;;;;5048735;28;20434;-74
2022/03/16 13:31:06;;;;;;;31.63;18.87;;;;;;;;;;5050835;28;20406;-74
2022/03/16 13:33:33;;;;;;;30.40;18.70;;;;;;;;;;5045694;28;20454;-73
2022/03/16 13:36:12;;;;;;;33.03;19.40;;;;;;;;;;5044962;28;20454;-73
2022/03/16 13:38:38;;;;;;;35.37;17.50;;;;;;;;;;5046841;28;20797;-74
2022/03/16 13:41:14;;;;;;;32.87;19.67;;;;;;;;;;5047852;28;20440;-74
2022/03/16 13:43:40;;;;;;;35.90;19.33;;;;;;;;;;5051212;28;20429;-74
2022/03/16 13:46:14;;;;;;;32.60;18.90;;;;;;;;;;5049001;28;20494;-74
2022/03/16 13:48:41;;;;;;;40.10;21.03;;;;;;;;;;5049669;28;20419;-74
2022/03/16 13:51:09;;;;;;;37.80;20.50;;;;;;;;;;5046909;28;20532;-74
2022/03/16 13:53:43;;;;;;;33.60;19.90;;;;;;;;;;5049466;28;20426;-74
2022/03/16 13:56:25;;;;;;;29.23;18.50;;;;;;;;;;5048087;28;20435;-73
2022/03/16 13:58:55;;;;;;;33.73;19.60;;;;;;;;;;5050688;28;20426;-74
2022/03/16 14:01:22;;;;;;;28.17;17.97;;;;;;;;;;5051307;28;20765;-74
2022/03/16 14:03:48;;;;;;;36.47;19.50;;;;;;;;;;5050822;28;20462;-74
2022/03/16 14:06:15;;;;;;;29.60;19.60;;;;;;;;;;5047134;28;20477;-74
2022/03/16 14:08:41;;;;;;;32.90;19.67;;;;;;;;;;5044236;28;20436;-74
2022/03/16 14:11:08;;;;;;;32.37;19.67;;;;;;;;;;5050850;28;20443;-73
2022/03/16 14:13:42;;;;;;;34.17;20.80;;;;;;;;;;5050510;28;20449;-73
2022/03/16 14:16:12;;;;;;;34.00;19.43;;;;;;;;;;5046792;28;20448;-74
2022/03/16 14:18:38;;;;;;;40.83;18.80;;;;;;;;;;5050086;28;20456;-74
2022/03/16 14:21:07;;;;;;;33.97;20.87;;;;;;;;;;5049149;28;20442;-74
2022/03/16 14:23:34;;;;;;;37.77;22.00;;;;;;;;;;5050380;28;20485;-74
2022/03/16 14:26:01;;;;;;;41.90;24.63;;;;;;;;;;5048243;28;21131;-74
2022/03/16 14:28:27;;;;;;;32.87;21.60;;;;;;;;;;5050066;28;20764;-74
2022/03/16 14:30:54;;;;;;;35.80;19.33;;;;;;;;;;5050178;28;20434;-74
2022/03/16 14:33:22;;;;;;;23.90;15.13;;;;;;;;;;5048578;28;20433;-74
2022/03/16 14:35:49;;;;;;;44.40;19.67;;;;;;;;;;5050329;28;20458;-74
2022/03/16 14:38:15;;;;;;;39.57;20.23;;;;;;;;;;5050180;28;20417;-74
2022/03/16 14:40:42;;;;;;;35.03;19.30;;;;;;;;;;5048916;28;20457;-74
2022/03/16 14:43:09;;;;;;;35.07;19.73;;;;;;;;;;5048904;28;20463;-74
2022/03/16 14:45:35;;;;;;;37.77;21.13;;;;;;;;;;5048375;28;22036;-74
2022/03/16 14:48:03;;;;;;;35.93;20.27;;;;;;;;;;5050133;28;20423;-74
2022/03/16 14:50:29;;;;;;;36.87;19.97;;;;;;;;;;5050122;28;20534;-74
2022/03/16 14:53:06;;;;;;;48.93;20.50;;;;;;;;;;5049825;28;20415;-74
2022/03/16 14:55:32;;;;;;;68.57;22.43;;;;;;;;;;5049729;28;21000;-74
2022/03/16 14:57:59;;;;;;;29.17;17.27;;;;;;;;;;5049957;28;20418;-74